Zebulon, NC (27597)

3:58 AM EDT on September 20, 2014 (GMT -0400)
Lizard Lick / Glory Rd NC | Change Station
CLOSE
Current Station
Personal Weather Station
Location: Wendell, NC
Elevation: 278 ft
Nearby Weather Stations

Elev 278 ft 35.86 °N, 78.37 °W | Updated 4 seconds ago

Clear
Clear
57.5 °F
Feels Like 57.5 °F
N
0.0
Wind Variable Wind from East
Gusts 0.0 mph

Today
High -- | Low -- °F
--% Chance of Precip.
Yesterday
High -- | Low -- °F
Precip. -- in
6:59 AM 7:13 PM
Waning Crescent, 14% visible
Pressure 30.23 in
Visibility 5.0 miles
Clouds Clear
Dew Point 57 °F
Humidity 98%
Rainfall 0.00 in
Snow Depth Not available.
UV 0 out of 12
Pollen 5.90 out of 12
Ozone Good
PM2.5 Good
Flu Activity Not available.
METAR KLHZ 200735Z AUTO 00000KT 5SM BR CLR 13/12 A3023 RMK AO2

More Conditions Fewer Conditions

Pressure 30.23 in
Visibility 5.0 miles
Clouds Clear
Dew Point 57 °F
Humidity 98%
Rainfall 0.00 in
Snow Depth Not available.
UV 0 out of 12
Pollen 5.90 out of 12
Ozone Good
PM2.5 Good
Flu Activity Not available.
METAR KLHZ 200735Z AUTO 00000KT 5SM BR CLR 13/12 A3023 RMK AO2

More Conditions Fewer Conditions

10-Day Weather Forecast

Almanac

Astronomy

Sep. 20, 2014 Rise Set
Actual Time 6:59 AM EDT 7:13 PM EDT
Civil Twilight 6:34 AM EDT 7:38 PM EDT
Nautical Twilight 6:04 AM EDT 8:08 PM EDT
Astronomical Twilight 5:33 AM EDT 8:38 PM EDT
Moon 3:42 AM EDT 5:11 PM EDT
Length of Visible Light 13h 04m
Length of Day
12h 13m
Tomorrow will be 2m 15s shorter.
Waning Crescent, 14% of the Moon is Illuminated
Today
Waning Crescent
Sep 24
New
Oct 1
First Quarter
Oct 8
Full
Oct 15
Last Quarter

Today's Extremes

State Highs State Lows

Community

WunderPhotos

Upload Photos

1,754,793 photos uploaded!

WunderBlogs® & News

Nearby

Air Quality

  Air Quality AQ Index Pollutant
Yesterday Good
OZONE
Yesterday Good
PM2.5
Current Good
PM2.5
Current Good
OZONE
Saturday Good
OZONE
Saturday Good
PM2.5
Sunday Good
PM2.5
Sunday Good
OZONE
Monday Good
PM2.5
Monday Good
OZONE

Snow Depth

Station Depth Elevation
No new snow has been reported.

Earthquake Activity

City Distance Mag. Time & Date
No recent earthquake activity has been reported nearby.
Minimum magnitude displayed is 2.5.

Coastal Water Temperatures

Place Temperature
No Stations Reporting

Nearby Weather Stations